Time;durP1;ratioP1;P1;durP2;ratioP2;P2;SDS_P1;SDS_P2;PMS_P1;PMS_P2;Temp;Humidity;BMP_temperature;BMP_pressure;BME280_temperature;BME280_humidity;BME280_pressure;Samples;Min_cycle;Max_cycle;Signal;HPM_P1;HPM_P2
2022/04/12 00:01:41;;;;;;;2.30;1.70;;;;;;;;;;5073362;28;20597;-84
2022/04/12 00:04:08;;;;;;;3.63;2.13;;;;;;;;;;5072952;28;20287;-84
2022/04/12 00:06:36;;;;;;;2.67;2.47;;;;;;;;;;5073211;28;20642;-84
2022/04/12 00:09:03;;;;;;;2.80;1.90;;;;;;;;;;5072887;28;20557;-84
2022/04/12 00:11:30;;;;;;;2.63;1.90;;;;;;;;;;5072816;28;20197;-83
2022/04/12 00:13:58;;;;;;;1.83;1.73;;;;;;;;;;5073204;28;20204;-84
2022/04/12 00:16:26;;;;;;;1.53;1.43;;;;;;;;;;5072800;28;20201;-84
2022/04/12 00:19:04;;;;;;;2.00;1.90;;;;;;;;;;5072460;28;20208;-84
2022/04/12 00:21:34;;;;;;;2.17;1.97;;;;;;;;;;5072833;28;20193;-84
2022/04/12 00:24:02;;;;;;;2.00;1.80;;;;;;;;;;5072688;28;20189;-83
2022/04/12 00:26:29;;;;;;;2.30;1.73;;;;;;;;;;5072702;28;20232;-83
2022/04/12 00:28:57;;;;;;;2.03;1.93;;;;;;;;;;5072752;28;20620;-84
2022/04/12 00:31:24;;;;;;;2.00;1.90;;;;;;;;;;5072565;28;20687;-84
2022/04/12 00:33:53;;;;;;;1.80;1.70;;;;;;;;;;5072626;28;20692;-84
2022/04/12 00:36:20;;;;;;;1.87;1.67;;;;;;;;;;5072100;28;20201;-84
2022/04/12 00:38:47;;;;;;;2.20;2.00;;;;;;;;;;5070929;28;20193;-83
2022/04/12 00:41:15;;;;;;;3.17;1.97;;;;;;;;;;5071021;28;20208;-83
2022/04/12 00:43:44;;;;;;;2.10;1.60;;;;;;;;;;5072447;28;20230;-84
2022/04/12 00:46:11;;;;;;;2.10;2.00;;;;;;;;;;5071668;28;20203;-83
2022/04/12 00:48:38;;;;;;;2.03;1.70;;;;;;;;;;5072413;28;20204;-83
2022/04/12 00:51:07;;;;;;;2.43;2.07;;;;;;;;;;5072369;28;20196;-84
2022/04/12 00:53:34;;;;;;;2.13;1.70;;;;;;;;;;5072142;28;20197;-84
2022/04/12 00:56:01;;;;;;;1.90;1.80;;;;;;;;;;5072151;28;20598;-83
2022/04/12 00:58:29;;;;;;;1.73;1.63;;;;;;;;;;5072220;28;20580;-84
2022/04/12 01:00:56;;;;;;;2.53;2.33;;;;;;;;;;5071803;28;20229;-84
2022/04/12 01:03:23;;;;;;;2.10;1.90;;;;;;;;;;5071869;28;20197;-86
2022/04/12 01:05:50;;;;;;;2.10;1.80;;;;;;;;;;5048999;28;20216;-82
2022/04/12 01:08:19;;;;;;;3.47;2.10;;;;;;;;;;5052139;28;20221;-81
2022/04/12 01:10:46;;;;;;;2.03;1.93;;;;;;;;;;5066262;28;20681;-81
2022/04/12 01:13:14;;;;;;;2.33;2.07;;;;;;;;;;5071907;28;20231;-82
2022/04/12 01:15:42;;;;;;;2.37;2.03;;;;;;;;;;5071997;28;20275;-81
2022/04/12 01:18:10;;;;;;;2.03;1.83;;;;;;;;;;5071577;28;20188;-81
2022/04/12 01:20:37;;;;;;;1.80;1.70;;;;;;;;;;5071872;28;20259;-81
2022/04/12 01:23:09;;;;;;;1.93;1.70;;;;;;;;;;5071689;28;20204;-81
2022/04/12 01:25:38;;;;;;;2.00;1.90;;;;;;;;;;5071881;28;20178;-83
2022/04/12 01:28:06;;;;;;;1.93;1.53;;;;;;;;;;5071464;28;20225;-82
2022/04/12 01:30:33;;;;;;;2.00;1.90;;;;;;;;;;5071868;28;20216;-83
2022/04/12 01:33:00;;;;;;;1.97;1.80;;;;;;;;;;5071437;28;20201;-83
2022/04/12 01:35:28;;;;;;;1.87;1.70;;;;;;;;;;5071428;28;20281;-83
2022/04/12 01:37:55;;;;;;;2.90;2.60;;;;;;;;;;5071668;28;20665;-83
2022/04/12 01:40:22;;;;;;;2.63;1.90;;;;;;;;;;5071485;28;20197;-83
2022/04/12 01:42:52;;;;;;;1.53;1.43;;;;;;;;;;5071503;28;20208;-83
2022/04/12 01:45:20;;;;;;;2.20;1.80;;;;;;;;;;5071267;28;20189;-83
2022/04/12 01:47:48;;;;;;;4.43;1.63;;;;;;;;;;5071365;28;20232;-83
2022/04/12 01:50:15;;;;;;;1.60;1.50;;;;;;;;;;5071327;28;20200;-82
2022/04/12 01:52:42;;;;;;;2.00;1.80;;;;;;;;;;5071511;28;20201;-83
2022/04/12 01:55:10;;;;;;;4.20;1.60;;;;;;;;;;5070954;28;20292;-82
2022/04/12 01:57:37;;;;;;;2.17;2.07;;;;;;;;;;5074690;28;20204;-83
2022/04/12 02:00:08;;;;;;;2.50;2.30;;;;;;;;;;5074837;28;20237;-82
2022/04/12 02:02:35;;;;;;;4.40;3.00;;;;;;;;;;5075567;28;20180;-83
2022/04/12 02:05:03;;;;;;;4.63;3.10;;;;;;;;;;5075179;28;20193;-83
2022/04/12 02:07:30;;;;;;;2.90;2.43;;;;;;;;;;5075115;28;20220;-82
2022/04/12 02:09:57;;;;;;;3.13;2.80;;;;;;;;;;5074699;28;20386;-82
2022/04/12 02:12:24;;;;;;;2.63;2.10;;;;;;;;;;5074994;28;20197;-83
2022/04/12 02:14:51;;;;;;;2.17;1.90;;;;;;;;;;5075255;28;20205;-83
2022/04/12 02:17:20;;;;;;;2.43;2.03;;;;;;;;;;5075256;28;20189;-82
2022/04/12 02:19:48;;;;;;;1.47;1.37;;;;;;;;;;5074812;28;20596;-82
2022/04/12 02:22:15;;;;;;;3.87;2.10;;;;;;;;;;5074770;28;20201;-83
2022/04/12 02:24:42;;;;;;;2.40;2.20;;;;;;;;;;5074675;28;20196;-82
2022/04/12 02:27:09;;;;;;;2.57;2.00;;;;;;;;;;5074713;28;20221;-83
2022/04/12 02:29:36;;;;;;;1.93;1.83;;;;;;;;;;5074874;28;20223;-82
2022/04/12 02:32:04;;;;;;;1.80;1.70;;;;;;;;;;5074896;28;20193;-84
2022/04/12 02:34:32;;;;;;;2.00;1.90;;;;;;;;;;5074607;28;20201;-84
2022/04/12 02:37:00;;;;;;;3.37;2.30;;;;;;;;;;5074599;28;20669;-83
2022/04/12 02:39:27;;;;;;;3.23;1.87;;;;;;;;;;5074604;28;20201;-83
2022/04/12 02:41:54;;;;;;;1.90;1.70;;;;;;;;;;5074819;28;20197;-83
2022/04/12 02:44:21;;;;;;;2.53;2.00;;;;;;;;;;5074739;28;20216;-83
2022/04/12 02:46:49;;;;;;;2.40;2.07;;;;;;;;;;5074811;28;20227;-86
2022/04/12 02:49:16;;;;;;;3.47;2.23;;;;;;;;;;5074520;28;20205;-83
2022/04/12 02:51:45;;;;;;;2.73;2.10;;;;;;;;;;5074437;28;20288;-84
2022/04/12 02:54:13;;;;;;;1.57;1.47;;;;;;;;;;5074323;28;20251;-83
2022/04/12 02:56:40;;;;;;;1.90;1.80;;;;;;;;;;5074323;28;20201;-83
2022/04/12 02:59:07;;;;;;;1.93;1.83;;;;;;;;;;5074044;28;20617;-83
2022/04/12 03:01:34;;;;;;;3.00;2.10;;;;;;;;;;5073994;28;20197;-84
2022/04/12 03:04:01;;;;;;;2.03;1.90;;;;;;;;;;5074485;28;20189;-83
2022/04/12 03:06:28;;;;;;;2.03;1.83;;;;;;;;;;5074085;28;20195;-83
2022/04/12 03:08:57;;;;;;;2.70;2.17;;;;;;;;;;5073438;28;20224;-83
2022/04/12 03:11:24;;;;;;;2.30;2.10;;;;;;;;;;5074113;28;20665;-83
2022/04/12 03:13:52;;;;;;;2.27;1.97;;;;;;;;;;5073947;28;20210;-83
2022/04/12 03:16:19;;;;;;;2.50;2.23;;;;;;;;;;5073951;28;20676;-83
2022/04/12 03:18:46;;;;;;;3.00;2.07;;;;;;;;;;5075095;28;20194;-83
2022/04/12 03:21:13;;;;;;;3.30;2.43;;;;;;;;;;5073998;28;20546;-83
2022/04/12 03:23:40;;;;;;;2.00;1.90;;;;;;;;;;5074150;28;20581;-83
2022/04/12 03:26:09;;;;;;;8.77;4.30;;;;;;;;;;5074058;28;20577;-83
2022/04/12 03:28:36;;;;;;;8.27;5.10;;;;;;;;;;5074053;28;20224;-83
2022/04/12 03:31:04;;;;;;;4.23;2.50;;;;;;;;;;5073388;28;20204;-83
2022/04/12 03:33:31;;;;;;;2.90;2.30;;;;;;;;;;5074139;28;20201;-83
2022/04/12 03:35:58;;;;;;;2.13;2.03;;;;;;;;;;5073527;28;20205;-84
2022/04/12 03:38:25;;;;;;;2.30;2.10;;;;;;;;;;5073704;28;20196;-83
2022/04/12 03:40:53;;;;;;;3.80;2.37;;;;;;;;;;5073124;28;20193;-83
2022/04/12 03:43:21;;;;;;;2.30;2.10;;;;;;;;;;5073758;28;20659;-83
2022/04/12 03:45:48;;;;;;;2.53;2.27;;;;;;;;;;5073645;28;20200;-83
2022/04/12 03:48:15;;;;;;;2.87;2.37;;;;;;;;;;5073315;28;20221;-83
2022/04/12 03:50:44;;;;;;;2.27;2.07;;;;;;;;;;5073102;28;20212;-83
2022/04/12 03:53:11;;;;;;;2.37;2.17;;;;;;;;;;5072419;28;20241;-83
2022/04/12 03:55:40;;;;;;;3.40;2.07;;;;;;;;;;5072329;28;20205;-83
2022/04/12 03:58:09;;;;;;;2.93;2.20;;;;;;;;;;5070921;28;20193;-82
2022/04/12 04:00:37;;;;;;;3.20;2.10;;;;;;;;;;5071923;28;20233;-82
2022/04/12 04:03:05;;;;;;;1.80;1.70;;;;;;;;;;5071953;28;20204;-83
2022/04/12 04:05:32;;;;;;;4.03;2.47;;;;;;;;;;5072120;28;20579;-83
2022/04/12 04:07:59;;;;;;;2.30;2.10;;;;;;;;;;5071755;28;20235;-83
2022/04/12 04:10:26;;;;;;;4.33;2.40;;;;;;;;;;5071139;28;20204;-83
2022/04/12 04:12:54;;;;;;;2.50;2.30;;;;;;;;;;5071530;28;20185;-82
2022/04/12 04:15:21;;;;;;;2.40;2.30;;;;;;;;;;5071813;28;20205;-83
2022/04/12 04:17:50;;;;;;;2.40;2.20;;;;;;;;;;5071543;28;20196;-83
2022/04/12 04:20:19;;;;;;;2.97;2.17;;;;;;;;;;5070926;28;20232;-83
2022/04/12 04:22:47;;;;;;;2.10;1.83;;;;;;;;;;5071037;28;20189;-83
2022/04/12 04:25:15;;;;;;;4.30;1.93;;;;;;;;;;5071543;28;20758;-83
2022/04/12 04:27:43;;;;;;;2.40;2.20;;;;;;;;;;5072585;28;20235;-83
2022/04/12 04:30:11;;;;;;;3.20;2.23;;;;;;;;;;5072043;28;20193;-83
2022/04/12 04:32:39;;;;;;;2.50;2.30;;;;;;;;;;5072007;28;20205;-83
2022/04/12 04:35:08;;;;;;;2.30;2.10;;;;;;;;;;5072358;28;20207;-83
2022/04/12 04:37:43;;;;;;;2.20;2.00;;;;;;;;;;5072472;28;20279;-83
2022/04/12 04:40:12;;;;;;;2.63;2.43;;;;;;;;;;5071236;28;20181;-83
2022/04/12 04:42:40;;;;;;;3.70;2.00;;;;;;;;;;5072443;28;20204;-83
2022/04/12 04:45:08;;;;;;;3.80;2.00;;;;;;;;;;5072194;28;20233;-83
2022/04/12 04:47:35;;;;;;;2.43;2.10;;;;;;;;;;5072380;28;20201;-83
2022/04/12 04:50:03;;;;;;;3.13;2.20;;;;;;;;;;5072453;28;20201;-83
2022/04/12 04:52:33;;;;;;;2.07;1.87;;;;;;;;;;5072512;28;20193;-82
2022/04/12 04:55:00;;;;;;;1.97;1.87;;;;;;;;;;5072193;28;20211;-83
2022/04/12 04:57:27;;;;;;;2.20;2.00;;;;;;;;;;5071980;28;20289;-83
2022/04/12 04:59:54;;;;;;;1.83;1.73;;;;;;;;;;5071767;28;20268;-83
2022/04/12 05:02:22;;;;;;;2.67;1.90;;;;;;;;;;5072444;28;20644;-82
2022/04/12 05:04:49;;;;;;;2.63;2.23;;;;;;;;;;5072177;28;20209;-83
2022/04/12 05:07:25;;;;;;;2.03;1.90;;;;;;;;;;5071869;28;20204;-83
2022/04/12 05:09:54;;;;;;;2.33;2.13;;;;;;;;;;5071840;28;20209;-83
2022/04/12 05:12:21;;;;;;;5.60;2.03;;;;;;;;;;5072064;28;20191;-83
2022/04/12 05:14:49;;;;;;;2.70;2.50;;;;;;;;;;5072267;28;20228;-83
2022/04/12 05:17:24;;;;;;;3.20;3.00;;;;;;;;;;5072283;28;20326;-83
2022/04/12 05:19:51;;;;;;;4.53;4.13;;;;;;;;;;5072049;28;20234;-83
2022/04/12 05:22:19;;;;;;;24.93;15.17;;;;;;;;;;5071908;28;20197;-83
2022/04/12 05:24:46;;;;;;;62.33;37.00;;;;;;;;;;5071985;28;20228;-82
2022/04/12 05:27:15;;;;;;;35.30;21.03;;;;;;;;;;5072148;28;20223;-83
2022/04/12 05:29:42;;;;;;;30.17;21.07;;;;;;;;;;5071333;28;20216;-83
2022/04/12 05:32:10;;;;;;;8.20;4.43;;;;;;;;;;5071677;28;20203;-83
2022/04/12 05:34:38;;;;;;;5.27;4.57;;;;;;;;;;5071699;28;20195;-83
2022/04/12 05:37:05;;;;;;;8.80;7.57;;;;;;;;;;5071555;28;20193;-83
2022/04/12 05:39:33;;;;;;;10.27;7.37;;;;;;;;;;5071647;28;20193;-83
2022/04/12 05:42:00;;;;;;;6.30;4.80;;;;;;;;;;5071748;28;20232;-83
2022/04/12 05:44:32;;;;;;;3.40;3.20;;;;;;;;;;5071551;28;20283;-83
2022/04/12 05:47:00;;;;;;;8.83;6.33;;;;;;;;;;5071691;28;20890;-83
2022/04/12 05:49:27;;;;;;;6.50;5.60;;;;;;;;;;5071371;28;20228;-83
2022/04/12 05:51:54;;;;;;;4.37;3.93;;;;;;;;;;5071941;28;20223;-83
2022/04/12 05:54:21;;;;;;;6.03;4.63;;;;;;;;;;5071434;28;20193;-82
2022/04/12 05:56:49;;;;;;;4.83;3.57;;;;;;;;;;5071649;28;20193;-82
2022/04/12 05:59:16;;;;;;;4.20;3.67;;;;;;;;;;5071179;28;20245;-82
2022/04/12 06:01:45;;;;;;;4.93;4.43;;;;;;;;;;5071831;28;20208;-82
2022/04/12 06:04:12;;;;;;;4.90;3.77;;;;;;;;;;5071171;28;20196;-82
2022/04/12 06:06:41;;;;;;;3.33;2.20;;;;;;;;;;5071450;28;20211;-82
2022/04/12 06:09:08;;;;;;;6.07;3.57;;;;;;;;;;5071283;28;20294;-82
2022/04/12 06:11:36;;;;;;;3.67;3.20;;;;;;;;;;5072061;28;20280;-82
2022/04/12 06:14:03;;;;;;;5.10;2.70;;;;;;;;;;5071206;28;20575;-82
2022/04/12 06:16:30;;;;;;;4.17;3.73;;;;;;;;;;5071508;28;20715;-83
2022/04/12 06:18:59;;;;;;;7.53;5.97;;;;;;;;;;5071320;28;20201;-82
2022/04/12 06:21:26;;;;;;;7.83;4.90;;;;;;;;;;5071631;28;20202;-82
2022/04/12 06:23:53;;;;;;;2.77;2.47;;;;;;;;;;5070989;28;20198;-82
2022/04/12 06:26:20;;;;;;;6.23;4.00;;;;;;;;;;5069678;28;20284;-82
2022/04/12 06:28:48;;;;;;;4.63;2.40;;;;;;;;;;5070240;28;20232;-82
2022/04/12 06:31:15;;;;;;;3.57;3.27;;;;;;;;;;5071368;28;20280;-81
2022/04/12 06:33:42;;;;;;;2.93;2.73;;;;;;;;;;5071287;28;20197;-82
2022/04/12 06:36:11;;;;;;;3.20;2.77;;;;;;;;;;5071218;28;20201;-83
2022/04/12 06:38:38;;;;;;;2.73;2.50;;;;;;;;;;5071384;28;20204;-82
2022/04/12 06:41:05;;;;;;;2.63;2.43;;;;;;;;;;5071008;28;20208;-82
2022/04/12 06:43:32;;;;;;;3.83;3.03;;;;;;;;;;5072765;28;20284;-82
2022/04/12 06:46:00;;;;;;;2.97;2.50;;;;;;;;;;5074536;28;20197;-82
2022/04/12 06:48:27;;;;;;;5.00;3.53;;;;;;;;;;5074524;28;20264;-83
2022/04/12 06:50:54;;;;;;;3.50;3.20;;;;;;;;;;5074336;28;20600;-82
2022/04/12 06:53:23;;;;;;;3.00;2.70;;;;;;;;;;5074850;28;20589;-82
2022/04/12 06:55:50;;;;;;;3.80;3.20;;;;;;;;;;5074022;28;20201;-82
2022/04/12 06:58:18;;;;;;;3.03;2.27;;;;;;;;;;5074448;28;20291;-82
2022/04/12 07:00:45;;;;;;;4.37;2.90;;;;;;;;;;5074119;28;20244;-82
2022/04/12 07:03:12;;;;;;;7.03;5.10;;;;;;;;;;5074081;28;20196;-81
2022/04/12 07:05:40;;;;;;;5.67;4.53;;;;;;;;;;5074116;28;20288;-81
2022/04/12 07:08:07;;;;;;;5.20;3.73;;;;;;;;;;5074456;28;20587;-82
2022/04/12 07:10:36;;;;;;;2.90;2.60;;;;;;;;;;5074178;28;20623;-82
2022/04/12 07:13:04;;;;;;;3.93;2.97;;;;;;;;;;5074429;28;20193;-82
2022/04/12 07:15:31;;;;;;;3.70;2.90;;;;;;;;;;5074014;28;20201;-82
2022/04/12 07:17:58;;;;;;;3.43;3.13;;;;;;;;;;5074227;28;20207;-82
2022/04/12 07:20:26;;;;;;;7.07;6.37;;;;;;;;;;5073923;28;20201;-81
2022/04/12 07:22:53;;;;;;;5.43;4.57;;;;;;;;;;5073922;28;20197;-82
2022/04/12 07:25:21;;;;;;;8.00;7.30;;;;;;;;;;5073523;28;20203;-82
2022/04/12 07:27:49;;;;;;;5.17;4.77;;;;;;;;;;5073884;28;20291;-82
2022/04/12 07:30:17;;;;;;;3.00;2.80;;;;;;;;;;5073791;28;20771;-82
2022/04/12 07:32:44;;;;;;;3.13;2.43;;;;;;;;;;5073841;28;20197;-82
2022/04/12 07:35:11;;;;;;;11.80;8.63;;;;;;;;;;5073357;28;20287;-82
2022/04/12 07:37:39;;;;;;;3.50;3.20;;;;;;;;;;5073699;28;20193;-82
2022/04/12 07:40:07;;;;;;;3.43;2.20;;;;;;;;;;5073291;28;20288;-82
2022/04/12 07:42:35;;;;;;;2.50;2.33;;;;;;;;;;5073391;28;20193;-82
2022/04/12 07:45:04;;;;;;;3.23;2.67;;;;;;;;;;5073374;28;20728;-82
2022/04/12 07:47:35;;;;;;;2.40;2.20;;;;;;;;;;5073825;28;20318;-82
2022/04/12 07:50:02;;;;;;;6.83;3.80;;;;;;;;;;5072956;28;20209;-82
2022/04/12 07:52:29;;;;;;;3.53;3.23;;;;;;;;;;5073439;28;20193;-82
2022/04/12 07:54:57;;;;;;;3.27;2.87;;;;;;;;;;5073023;28;20199;-82
2022/04/12 07:57:24;;;;;;;2.87;2.47;;;;;;;;;;5073338;28;20288;-82
2022/04/12 07:59:51;;;;;;;4.77;2.50;;;;;;;;;;5072567;28;20325;-83
2022/04/12 08:02:20;;;;;;;2.53;2.30;;;;;;;;;;5073470;28;20204;-82
2022/04/12 08:04:47;;;;;;;4.80;3.77;;;;;;;;;;5073273;28;20205;-82
2022/04/12 08:07:14;;;;;;;2.93;2.60;;;;;;;;;;5073492;28;20584;-82
2022/04/12 08:09:41;;;;;;;6.23;4.63;;;;;;;;;;5072574;28;20231;-82
2022/04/12 08:12:09;;;;;;;2.57;2.20;;;;;;;;;;5072998;28;20204;-81
2022/04/12 08:14:36;;;;;;;8.37;7.47;;;;;;;;;;5072849;28;20682;-81
2022/04/12 08:17:04;;;;;;;3.27;3.07;;;;;;;;;;5072914;28;20200;-81
2022/04/12 08:19:33;;;;;;;6.00;5.13;;;;;;;;;;5072756;28;20197;-82
2022/04/12 08:22:01;;;;;;;11.77;8.20;;;;;;;;;;5072562;28;20201;-82
2022/04/12 08:24:29;;;;;;;24.33;14.17;;;;;;;;;;5072596;28;20197;-81
2022/04/12 08:26:56;;;;;;;5.67;3.13;;;;;;;;;;5072771;28;20201;-82
2022/04/12 08:29:23;;;;;;;2.77;2.40;;;;;;;;;;5072406;28;20220;-81
2022/04/12 08:31:51;;;;;;;5.90;3.90;;;;;;;;;;5072578;28;20201;-82
2022/04/12 08:34:19;;;;;;;5.63;2.40;;;;;;;;;;5072818;28;20280;-81
2022/04/12 08:36:48;;;;;;;2.90;2.60;;;;;;;;;;5072674;28;20192;-81
2022/04/12 08:39:15;;;;;;;6.80;2.87;;;;;;;;;;5072342;28;20196;-81
2022/04/12 08:41:42;;;;;;;3.53;2.30;;;;;;;;;;5072507;28;20615;-81
2022/04/12 08:44:09;;;;;;;2.57;2.37;;;;;;;;;;5072258;28;20593;-81
2022/04/12 08:46:39;;;;;;;3.53;2.27;;;;;;;;;;5072295;28;20194;-81
2022/04/12 08:49:06;;;;;;;2.63;2.43;;;;;;;;;;5072157;28;20228;-81
2022/04/12 08:51:33;;;;;;;8.17;5.07;;;;;;;;;;5072055;28;20196;-82
2022/04/12 08:54:03;;;;;;;8.43;5.10;;;;;;;;;;5072117;28;20197;-81
2022/04/12 08:56:30;;;;;;;5.47;4.93;;;;;;;;;;5072246;28;20197;-81
2022/04/12 08:58:57;;;;;;;4.40;3.70;;;;;;;;;;5071913;28;20229;-81
2022/04/12 09:01:25;;;;;;;7.80;5.40;;;;;;;;;;5072530;28;20207;-81
2022/04/12 09:03:52;;;;;;;4.87;4.10;;;;;;;;;;5072298;28;20307;-82
2022/04/12 09:06:20;;;;;;;3.27;2.93;;;;;;;;;;5071800;28;20197;-82
2022/04/12 09:08:47;;;;;;;5.00;2.40;;;;;;;;;;5072297;28;20307;-82
2022/04/12 09:11:17;;;;;;;3.63;2.77;;;;;;;;;;5071490;28;20548;-82
2022/04/12 09:13:59;;;;;;;6.37;3.37;;;;;;;;;;5071969;28;20546;-82
2022/04/12 09:16:28;;;;;;;1.90;1.80;;;;;;;;;;5072005;28;20190;-82
2022/04/12 09:18:56;;;;;;;1.80;1.70;;;;;;;;;;5072310;28;20208;-82
2022/04/12 09:21:25;;;;;;;2.17;1.97;;;;;;;;;;5071704;28;20206;-82
2022/04/12 09:23:54;;;;;;;7.73;3.77;;;;;;;;;;5071669;28;20592;-81
2022/04/12 09:26:27;;;;;;;7.70;5.40;;;;;;;;;;5072157;28;20201;-81
2022/04/12 09:28:56;;;;;;;9.17;5.80;;;;;;;;;;5072171;28;20667;-82
2022/04/12 09:31:24;;;;;;;5.77;3.87;;;;;;;;;;5071973;28;20276;-81
2022/04/12 09:33:53;;;;;;;4.87;4.37;;;;;;;;;;5071945;28;20568;-81
2022/04/12 09:36:21;;;;;;;5.37;3.10;;;;;;;;;;5071745;28;20243;-81
2022/04/12 09:38:49;;;;;;;2.63;2.30;;;;;;;;;;5071700;28;20284;-81
2022/04/12 09:41:19;;;;;;;2.50;2.10;;;;;;;;;;5071399;28;20200;-81
2022/04/12 09:43:55;;;;;;;2.10;1.90;;;;;;;;;;5071626;28;20201;-81
2022/04/12 09:46:22;;;;;;;2.97;2.40;;;;;;;;;;5071711;28;20275;-82
2022/04/12 09:48:50;;;;;;;2.97;2.57;;;;;;;;;;5071456;28;20280;-81
2022/04/12 09:51:18;;;;;;;2.20;2.00;;;;;;;;;;5071849;28;20631;-82
2022/04/12 09:53:46;;;;;;;1.90;1.70;;;;;;;;;;5071578;28;20193;-81
2022/04/12 09:56:18;;;;;;;2.83;2.00;;;;;;;;;;5071603;28;20689;-82
2022/04/12 09:58:47;;;;;;;3.83;2.20;;;;;;;;;;5071270;28;20276;-81
2022/04/12 10:01:17;;;;;;;2.87;2.67;;;;;;;;;;5071552;28;20193;-82
2022/04/12 10:03:47;;;;;;;2.73;1.97;;;;;;;;;;5071400;28;20228;-81
2022/04/12 10:06:15;;;;;;;2.40;2.20;;;;;;;;;;5071423;28;20658;-82
2022/04/12 10:08:43;;;;;;;2.23;1.63;;;;;;;;;;5071420;28;20203;-81
2022/04/12 10:11:13;;;;;;;1.70;1.60;;;;;;;;;;5071357;28;20284;-82
2022/04/12 10:13:41;;;;;;;2.77;2.00;;;;;;;;;;5071642;28;20205;-81
2022/04/12 10:16:09;;;;;;;1.70;1.60;;;;;;;;;;5071096;28;20287;-82
2022/04/12 10:18:39;;;;;;;5.10;3.97;;;;;;;;;;5073317;28;20201;-82
2022/04/12 10:21:07;;;;;;;6.70;1.87;;;;;;;;;;5075598;28;20201;-81
2022/04/12 10:23:35;;;;;;;3.73;2.60;;;;;;;;;;5074808;28;20197;-82
2022/04/12 10:26:02;;;;;;;2.17;2.07;;;;;;;;;;5074935;28;20193;-82
2022/04/12 10:28:31;;;;;;;2.10;2.00;;;;;;;;;;5075207;28;20200;-82
2022/04/12 10:31:21;;;;;;;3.13;2.30;;;;;;;;;;5074797;28;20225;-82
2022/04/12 10:33:54;;;;;;;2.37;2.17;;;;;;;;;;5075008;28;20272;-82
2022/04/12 10:36:22;;;;;;;3.93;2.07;;;;;;;;;;5074873;28;20276;-82
2022/04/12 10:38:49;;;;;;;1.70;1.60;;;;;;;;;;5074878;28;20201;-82
2022/04/12 10:41:30;;;;;;;7.37;4.63;;;;;;;;;;5074723;28;20700;-82
2022/04/12 10:43:58;;;;;;;2.50;2.30;;;;;;;;;;5075122;28;20571;-82
2022/04/12 10:46:25;;;;;;;2.60;2.20;;;;;;;;;;5074684;28;20244;-82
2022/04/12 10:48:57;;;;;;;2.07;1.87;;;;;;;;;;5074486;28;20260;-81
2022/04/12 10:51:37;;;;;;;2.73;2.20;;;;;;;;;;5074358;28;20225;-82
2022/04/12 10:54:05;;;;;;;2.53;1.63;;;;;;;;;;5074398;28;20192;-81
2022/04/12 10:56:33;;;;;;;1.70;1.60;;;;;;;;;;5074793;28;20219;-82
2022/04/12 10:59:00;;;;;;;2.43;1.90;;;;;;;;;;5073840;28;20633;-82
2022/04/12 11:01:30;;;;;;;2.00;1.80;;;;;;;;;;5074468;28;20182;-82
2022/04/12 11:03:59;;;;;;;2.90;2.00;;;;;;;;;;5074191;28;20666;-82
2022/04/12 11:06:27;;;;;;;2.27;2.07;;;;;;;;;;5074266;28;20203;-82
2022/04/12 11:08:55;;;;;;;1.97;1.87;;;;;;;;;;5073934;28;20197;-82
2022/04/12 11:11:26;;;;;;;2.63;2.30;;;;;;;;;;5074092;28;20223;-82
2022/04/12 11:13:54;;;;;;;3.73;2.17;;;;;;;;;;5074132;28;20224;-82
2022/04/12 11:16:28;;;;;;;3.17;2.87;;;;;;;;;;5074130;28;20201;-81
2022/04/12 11:18:56;;;;;;;2.70;2.50;;;;;;;;;;5074022;28;20186;-82
2022/04/12 11:21:26;;;;;;;2.23;2.03;;;;;;;;;;5073961;28;20228;-81
2022/04/12 11:23:58;;;;;;;4.80;2.20;;;;;;;;;;5073870;28;20201;-81
2022/04/12 11:26:28;;;;;;;3.53;1.93;;;;;;;;;;5073972;28;20241;-82
2022/04/12 11:28:57;;;;;;;6.13;5.00;;;;;;;;;;5073171;28;20288;-82
2022/04/12 11:31:24;;;;;;;3.13;2.67;;;;;;;;;;5074065;28;20282;-82
2022/04/12 11:33:51;;;;;;;8.93;5.63;;;;;;;;;;5074228;28;20241;-81
2022/04/12 11:36:19;;;;;;;2.40;2.20;;;;;;;;;;5074040;28;20223;-82
2022/04/12 11:38:48;;;;;;;2.40;2.20;;;;;;;;;;5073345;28;20358;-82
2022/04/12 11:41:16;;;;;;;2.13;1.80;;;;;;;;;;5073601;28;20197;-82
2022/04/12 11:43:43;;;;;;;7.07;2.40;;;;;;;;;;5073812;28;20307;-82
2022/04/12 11:46:17;;;;;;;5.27;3.57;;;;;;;;;;5073879;28;20635;-82
2022/04/12 11:48:44;;;;;;;2.60;2.40;;;;;;;;;;5073436;28;20289;-81
2022/04/12 11:51:11;;;;;;;7.60;5.43;;;;;;;;;;5073051;28;20267;-82
2022/04/12 11:53:49;;;;;;;3.47;2.30;;;;;;;;;;5073354;28;20197;-81
2022/04/12 11:56:16;;;;;;;5.07;4.10;;;;;;;;;;5073616;28;20193;-82
2022/04/12 11:58:45;;;;;;;5.73;3.50;;;;;;;;;;5073286;28;20201;-83
2022/04/12 12:01:13;;;;;;;4.40;3.27;;;;;;;;;;5073298;28;20189;-82
2022/04/12 12:03:42;;;;;;;2.47;1.63;;;;;;;;;;5073082;28;20204;-82
2022/04/12 12:06:10;;;;;;;6.00;2.63;;;;;;;;;;5073046;28;20197;-82
2022/04/12 12:08:37;;;;;;;4.20;3.20;;;;;;;;;;5073067;28;20205;-82
2022/04/12 12:11:12;;;;;;;1.83;1.73;;;;;;;;;;5072936;28;20217;-82
2022/04/12 12:13:40;;;;;;;3.47;2.67;;;;;;;;;;5072734;28;20671;-82
2022/04/12 12:16:16;;;;;;;2.40;2.00;;;;;;;;;;5072841;28;20292;-82
2022/04/12 12:18:43;;;;;;;2.40;2.20;;;;;;;;;;5072860;28;20185;-82
2022/04/12 12:21:11;;;;;;;3.20;2.53;;;;;;;;;;5073066;28;20276;-82
2022/04/12 12:23:38;;;;;;;5.70;2.47;;;;;;;;;;5072936;28;20201;-82
2022/04/12 12:26:05;;;;;;;11.03;3.47;;;;;;;;;;5072606;28;20292;-82
2022/04/12 12:28:41;;;;;;;6.50;4.00;;;;;;;;;;5072687;28;20582;-82
2022/04/12 12:31:08;;;;;;;10.07;3.70;;;;;;;;;;5072546;28;20296;-82
2022/04/12 12:33:41;;;;;;;9.00;4.07;;;;;;;;;;5072578;28;20242;-82
2022/04/12 12:36:18;;;;;;;2.30;1.93;;;;;;;;;;5072207;28;20217;-82
2022/04/12 12:38:45;;;;;;;22.50;11.43;;;;;;;;;;5072492;28;20193;-82
2022/04/12 12:41:13;;;;;;;7.80;6.00;;;;;;;;;;5071675;28;20276;-83
2022/04/12 12:43:42;;;;;;;5.67;4.83;;;;;;;;;;5070925;28;20200;-82
2022/04/12 12:46:09;;;;;;;3.97;2.60;;;;;;;;;;5072913;28;20193;-82
2022/04/12 12:48:37;;;;;;;2.43;1.50;;;;;;;;;;5072656;28;20193;-82
2022/04/12 12:51:05;;;;;;;3.10;2.70;;;;;;;;;;5072033;28;20221;-82
2022/04/12 12:53:34;;;;;;;6.00;2.50;;;;;;;;;;5072379;28;20203;-82
2022/04/12 12:56:01;;;;;;;3.00;2.50;;;;;;;;;;5072325;28;20284;-82
2022/04/12 12:58:30;;;;;;;3.03;2.73;;;;;;;;;;5072264;28;20201;-82
2022/04/12 13:01:04;;;;;;;2.10;1.90;;;;;;;;;;5071733;28;20730;-82
2022/04/12 13:03:31;;;;;;;5.13;3.17;;;;;;;;;;5072160;28;20268;-82
2022/04/12 13:06:00;;;;;;;1.90;1.67;;;;;;;;;;5072137;28;20198;-82
2022/04/12 13:08:28;;;;;;;1.83;1.73;;;;;;;;;;5072370;28;20194;-82
2022/04/12 13:10:57;;;;;;;1.97;1.47;;;;;;;;;;5071726;28;20314;-82
2022/04/12 13:13:24;;;;;;;2.33;2.00;;;;;;;;;;5071995;28;20293;-82
2022/04/12 13:15:52;;;;;;;10.63;8.20;;;;;;;;;;5071824;28;20202;-82
2022/04/12 13:18:22;;;;;;;14.77;11.67;;;;;;;;;;5071935;28;20674;-82
2022/04/12 13:20:49;;;;;;;5.03;2.93;;;;;;;;;;5071822;28;20191;-82
2022/04/12 13:23:16;;;;;;;2.10;1.90;;;;;;;;;;5071717;28;20316;-82
2022/04/12 13:25:43;;;;;;;3.47;2.00;;;;;;;;;;5071743;28;20209;-82
2022/04/12 13:28:11;;;;;;;2.93;1.90;;;;;;;;;;5072185;28;20632;-83
2022/04/12 13:30:38;;;;;;;4.40;2.23;;;;;;;;;;5071629;28;20728;-82
2022/04/12 13:33:05;;;;;;;1.47;1.23;;;;;;;;;;5072041;28;20263;-82
2022/04/12 13:35:36;;;;;;;1.77;1.50;;;;;;;;;;5071984;28;20198;-82
2022/04/12 13:38:03;;;;;;;1.67;1.57;;;;;;;;;;5071868;28;20186;-83
2022/04/12 13:40:31;;;;;;;2.37;1.93;;;;;;;;;;5071591;28;20195;-82
2022/04/12 13:42:58;;;;;;;4.50;1.90;;;;;;;;;;5072196;28;20596;-82
2022/04/12 13:45:25;;;;;;;2.40;1.90;;;;;;;;;;5071856;28;20756;-82
2022/04/12 13:47:53;;;;;;;3.57;1.67;;;;;;;;;;5071656;28;20197;-82
2022/04/12 13:50:20;;;;;;;1.77;1.67;;;;;;;;;;5071435;28;20288;-82
2022/04/12 13:52:49;;;;;;;2.97;1.73;;;;;;;;;;5073535;28;20323;-82
2022/04/12 13:55:16;;;;;;;1.60;1.50;;;;;;;;;;5075793;28;20216;-82
2022/04/12 13:57:45;;;;;;;2.60;2.00;;;;;;;;;;5075640;28;20201;-82
2022/04/12 14:00:14;;;;;;;2.63;2.10;;;;;;;;;;5075047;28;20297;-82
2022/04/12 14:02:41;;;;;;;2.30;1.63;;;;;;;;;;5075583;28;20198;-82
2022/04/12 14:05:09;;;;;;;2.00;1.80;;;;;;;;;;5075302;28;20197;-82
2022/04/12 14:07:36;;;;;;;1.90;1.80;;;;;;;;;;5076050;28;20655;-82
2022/04/12 14:10:06;;;;;;;2.53;1.73;;;;;;;;;;5075334;28;20581;-82
2022/04/12 14:12:33;;;;;;;2.40;1.30;;;;;;;;;;5075245;28;20220;-82
2022/04/12 14:15:00;;;;;;;3.53;1.70;;;;;;;;;;5075093;28;20197;-81
2022/04/12 14:17:28;;;;;;;1.70;1.60;;;;;;;;;;5075547;28;20297;-81
2022/04/12 14:19:55;;;;;;;1.70;1.40;;;;;;;;;;5074799;28;20229;-81
2022/04/12 14:22:22;;;;;;;2.03;1.50;;;;;;;;;;5075198;28;20196;-81
2022/04/12 14:24:49;;;;;;;3.83;1.40;;;;;;;;;;5074958;28;20207;-82
2022/04/12 14:27:19;;;;;;;1.97;1.53;;;;;;;;;;5075076;28;20204;-82
2022/04/12 14:29:46;;;;;;;1.43;1.17;;;;;;;;;;5074637;28;20197;-82
2022/04/12 14:32:13;;;;;;;1.57;1.47;;;;;;;;;;5074940;28;20217;-82
2022/04/12 14:34:40;;;;;;;4.07;1.60;;;;;;;;;;5074711;28;20292;-82
2022/04/12 14:37:08;;;;;;;1.80;1.30;;;;;;;;;;5075337;28;20224;-83
2022/04/12 14:39:35;;;;;;;2.07;1.83;;;;;;;;;;5074432;28;20201;-82
2022/04/12 14:42:03;;;;;;;5.70;1.67;;;;;;;;;;5074586;28;20288;-82
2022/04/12 14:44:31;;;;;;;5.20;3.40;;;;;;;;;;5073877;28;20197;-82
2022/04/12 14:46:59;;;;;;;7.97;4.50;;;;;;;;;;5075082;28;20276;-83
2022/04/12 14:49:27;;;;;;;6.17;3.33;;;;;;;;;;5074374;28;20236;-83